To NAV CANADA Home Page Login to a new session Search on AWWS site Feedback and Comments Disclaimer Vers la page française équivalente Tips FAQ What's new on the site To the Forecasts and Observations / NOTAM section To "File a Flight Plan" website Publications and other links Update of the User's profile FIC Telephone Numbers My Weather Data Folder Route Weather Data Regional Weather Data Local Weather Data To the Forecasts and Observations / NOTAM section
Request Generated 03/29/2015 at 22:20:48 UTC . Weather information available at that time is displayed.

METAR/TAF

KINDERSLEY/KINDERSLEY REGIONAL/SK    

METAR CYKY 292200Z 23012KT 15SM FEW050TCU SCT100 BKN240 15/02 A2982
RMK TCU2AC2CI3 TCU N QUAD SLP112 DENSITY ALT 2900FT=
METAR CYKY 292100Z 20007KT 15SM SCT100 BKN240 13/05 A2984 RMK AC3CI4
SLP121 DENSITY ALT 2600FT=
METAR CYKY 292000Z 22009G15KT 15SM FEW100 BKN260 13/04 A2987 RMK
AC2CI5 SLP130 DENSITY ALT 2600FT=

CYKY - No TAF is issued for this station

Your time UTC time
Weather data provided by Environment Canada and NAV CANADA